sensor_id;sensor_type;location;lat;lon;timestamp;temperature;humidity
64888;DHT22;51386;53.082;8.816;2023-04-06T00:01:04;8.30;56.50
64888;DHT22;51386;53.082;8.816;2023-04-06T00:03:31;8.30;56.60
64888;DHT22;51386;53.082;8.816;2023-04-06T00:05:58;8.30;56.50
64888;DHT22;51386;53.082;8.816;2023-04-06T00:08:26;8.30;56.70
64888;DHT22;51386;53.082;8.816;2023-04-06T00:10:53;8.30;56.80
64888;DHT22;51386;53.082;8.816;2023-04-06T00:13:20;8.20;56.80
64888;DHT22;51386;53.082;8.816;2023-04-06T00:15:48;8.30;56.90
64888;DHT22;51386;53.082;8.816;2023-04-06T00:18:15;8.20;56.70
64888;DHT22;51386;53.082;8.816;2023-04-06T00:20:42;8.20;56.60
64888;DHT22;51386;53.082;8.816;2023-04-06T00:23:09;8.10;57.30
64888;DHT22;51386;53.082;8.816;2023-04-06T00:25:37;8.10;57.40
64888;DHT22;51386;53.082;8.816;2023-04-06T00:28:04;8.10;57.80
64888;DHT22;51386;53.082;8.816;2023-04-06T00:30:31;8.00;57.50
64888;DHT22;51386;53.082;8.816;2023-04-06T00:32:58;7.90;57.80
64888;DHT22;51386;53.082;8.816;2023-04-06T00:35:25;7.90;58.00
64888;DHT22;51386;53.082;8.816;2023-04-06T00:37:52;7.90;58.00
64888;DHT22;51386;53.082;8.816;2023-04-06T00:40:19;7.90;58.00
64888;DHT22;51386;53.082;8.816;2023-04-06T00:42:47;7.80;58.00
64888;DHT22;51386;53.082;8.816;2023-04-06T00:45:14;7.80;58.10
64888;DHT22;51386;53.082;8.816;2023-04-06T00:47:41;7.70;58.40
64888;DHT22;51386;53.082;8.816;2023-04-06T00:50:09;7.60;58.50
64888;DHT22;51386;53.082;8.816;2023-04-06T00:52:36;7.70;58.70
64888;DHT22;51386;53.082;8.816;2023-04-06T00:55:04;7.60;58.80
64888;DHT22;51386;53.082;8.816;2023-04-06T00:57:32;7.60;59.10
64888;DHT22;51386;53.082;8.816;2023-04-06T01:00:00;7.60;59.40
64888;DHT22;51386;53.082;8.816;2023-04-06T01:02:27;7.60;59.40
64888;DHT22;51386;53.082;8.816;2023-04-06T01:04:54;7.60;59.30
64888;DHT22;51386;53.082;8.816;2023-04-06T01:07:21;7.60;59.10
64888;DHT22;51386;53.082;8.816;2023-04-06T01:09:48;7.60;59.00
64888;DHT22;51386;53.082;8.816;2023-04-06T01:12:16;7.60;59.00
64888;DHT22;51386;53.082;8.816;2023-04-06T01:14:43;7.50;58.90
64888;DHT22;51386;53.082;8.816;2023-04-06T01:17:11;7.50;59.00
64888;DHT22;51386;53.082;8.816;2023-04-06T01:19:39;7.50;59.30
64888;DHT22;51386;53.082;8.816;2023-04-06T01:22:07;7.40;59.40
64888;DHT22;51386;53.082;8.816;2023-04-06T01:24:35;7.30;59.40
64888;DHT22;51386;53.082;8.816;2023-04-06T01:27:02;7.30;59.80
64888;DHT22;51386;53.082;8.816;2023-04-06T01:29:29;7.30;59.70
64888;DHT22;51386;53.082;8.816;2023-04-06T01:31:56;7.20;59.60
64888;DHT22;51386;53.082;8.816;2023-04-06T01:34:26;7.20;59.80
64888;DHT22;51386;53.082;8.816;2023-04-06T01:36:53;7.20;59.80
64888;DHT22;51386;53.082;8.816;2023-04-06T01:39:20;7.20;60.00
64888;DHT22;51386;53.082;8.816;2023-04-06T01:41:48;7.20;59.90
64888;DHT22;51386;53.082;8.816;2023-04-06T01:44:16;7.20;59.90
64888;DHT22;51386;53.082;8.816;2023-04-06T01:46:45;7.20;59.70
64888;DHT22;51386;53.082;8.816;2023-04-06T01:49:12;7.10;59.50
64888;DHT22;51386;53.082;8.816;2023-04-06T01:51:39;7.10;59.70
64888;DHT22;51386;53.082;8.816;2023-04-06T01:54:06;7.10;59.70
64888;DHT22;51386;53.082;8.816;2023-04-06T01:56:33;7.10;59.90
64888;DHT22;51386;53.082;8.816;2023-04-06T01:59:02;7.10;59.90
64888;DHT22;51386;53.082;8.816;2023-04-06T02:01:29;7.10;60.00
64888;DHT22;51386;53.082;8.816;2023-04-06T02:03:56;7.00;60.20
64888;DHT22;51386;53.082;8.816;2023-04-06T02:06:23;7.10;60.80
64888;DHT22;51386;53.082;8.816;2023-04-06T02:08:50;7.10;60.10
64888;DHT22;51386;53.082;8.816;2023-04-06T02:11:17;7.10;59.80
64888;DHT22;51386;53.082;8.816;2023-04-06T02:13:44;7.10;59.50
64888;DHT22;51386;53.082;8.816;2023-04-06T02:16:12;7.10;59.10
64888;DHT22;51386;53.082;8.816;2023-04-06T02:18:39;7.00;58.90
64888;DHT22;51386;53.082;8.816;2023-04-06T02:21:06;7.00;59.60
64888;DHT22;51386;53.082;8.816;2023-04-06T02:23:33;7.00;59.20
64888;DHT22;51386;53.082;8.816;2023-04-06T02:26:00;7.00;59.00
64888;DHT22;51386;53.082;8.816;2023-04-06T02:28:27;6.90;58.90
64888;DHT22;51386;53.082;8.816;2023-04-06T02:30:54;6.90;59.00
64888;DHT22;51386;53.082;8.816;2023-04-06T02:33:22;6.80;59.00
64888;DHT22;51386;53.082;8.816;2023-04-06T02:35:49;6.80;59.60
64888;DHT22;51386;53.082;8.816;2023-04-06T02:38:16;6.80;59.30
64888;DHT22;51386;53.082;8.816;2023-04-06T02:40:43;6.80;59.30
64888;DHT22;51386;53.082;8.816;2023-04-06T02:43:10;6.80;58.90
64888;DHT22;51386;53.082;8.816;2023-04-06T02:45:37;6.70;58.70
64888;DHT22;51386;53.082;8.816;2023-04-06T02:48:05;6.70;58.60
64888;DHT22;51386;53.082;8.816;2023-04-06T02:50:33;6.70;58.60
64888;DHT22;51386;53.082;8.816;2023-04-06T02:53:00;6.70;58.50
64888;DHT22;51386;53.082;8.816;2023-04-06T02:55:27;6.70;58.40
64888;DHT22;51386;53.082;8.816;2023-04-06T02:57:54;6.70;58.40
64888;DHT22;51386;53.082;8.816;2023-04-06T03:00:21;6.70;58.20
64888;DHT22;51386;53.082;8.816;2023-04-06T03:02:48;6.70;57.80
64888;DHT22;51386;53.082;8.816;2023-04-06T03:05:15;6.70;57.60
64888;DHT22;51386;53.082;8.816;2023-04-06T03:07:43;6.70;57.80
64888;DHT22;51386;53.082;8.816;2023-04-06T03:10:11;6.70;58.30
64888;DHT22;51386;53.082;8.816;2023-04-06T03:12:38;6.70;57.20
64888;DHT22;51386;53.082;8.816;2023-04-06T03:15:06;6.70;57.00
64888;DHT22;51386;53.082;8.816;2023-04-06T03:17:33;6.70;56.60
64888;DHT22;51386;53.082;8.816;2023-04-06T03:20:01;6.70;56.40
64888;DHT22;51386;53.082;8.816;2023-04-06T03:22:28;6.70;56.30
64888;DHT22;51386;53.082;8.816;2023-04-06T03:24:57;6.70;55.90
64888;DHT22;51386;53.082;8.816;2023-04-06T03:27:24;6.70;55.60
64888;DHT22;51386;53.082;8.816;2023-04-06T03:29:51;6.70;55.50
64888;DHT22;51386;53.082;8.816;2023-04-06T03:32:18;6.70;55.40
64888;DHT22;51386;53.082;8.816;2023-04-06T03:34:45;6.60;55.30
64888;DHT22;51386;53.082;8.816;2023-04-06T03:37:12;6.60;55.20
64888;DHT22;51386;53.082;8.816;2023-04-06T03:39:39;6.50;54.80
64888;DHT22;51386;53.082;8.816;2023-04-06T03:42:08;6.50;54.90
64888;DHT22;51386;53.082;8.816;2023-04-06T03:44:36;6.50;55.00
64888;DHT22;51386;53.082;8.816;2023-04-06T03:47:03;6.50;54.80
64888;DHT22;51386;53.082;8.816;2023-04-06T03:49:30;6.50;54.90
64888;DHT22;51386;53.082;8.816;2023-04-06T03:51:57;6.50;54.80
64888;DHT22;51386;53.082;8.816;2023-04-06T03:54:25;6.50;54.70
64888;DHT22;51386;53.082;8.816;2023-04-06T03:56:52;6.50;54.80
64888;DHT22;51386;53.082;8.816;2023-04-06T03:59:20;6.50;54.80
64888;DHT22;51386;53.082;8.816;2023-04-06T04:01:47;6.40;55.10
64888;DHT22;51386;53.082;8.816;2023-04-06T04:04:14;6.40;55.20
64888;DHT22;51386;53.082;8.816;2023-04-06T04:06:41;6.40;55.70
64888;DHT22;51386;53.082;8.816;2023-04-06T04:09:08;6.40;55.90
64888;DHT22;51386;53.082;8.816;2023-04-06T04:11:35;6.40;56.00
64888;DHT22;51386;53.082;8.816;2023-04-06T04:14:02;6.40;55.60
64888;DHT22;51386;53.082;8.816;2023-04-06T04:16:31;6.40;55.40
64888;DHT22;51386;53.082;8.816;2023-04-06T04:18:58;6.40;55.70
64888;DHT22;51386;53.082;8.816;2023-04-06T04:21:25;6.40;55.30
64888;DHT22;51386;53.082;8.816;2023-04-06T04:23:52;6.30;55.10
64888;DHT22;51386;53.082;8.816;2023-04-06T04:26:19;6.30;55.10
64888;DHT22;51386;53.082;8.816;2023-04-06T04:28:46;6.30;55.30
64888;DHT22;51386;53.082;8.816;2023-04-06T04:31:13;6.30;55.20
64888;DHT22;51386;53.082;8.816;2023-04-06T04:33:41;6.20;54.90
64888;DHT22;51386;53.082;8.816;2023-04-06T04:36:08;6.20;54.90
64888;DHT22;51386;53.082;8.816;2023-04-06T04:38:36;6.20;54.90
64888;DHT22;51386;53.082;8.816;2023-04-06T04:41:03;6.20;54.90
64888;DHT22;51386;53.082;8.816;2023-04-06T04:43:30;6.10;55.00
64888;DHT22;51386;53.082;8.816;2023-04-06T04:45:58;6.10;54.90
64888;DHT22;51386;53.082;8.816;2023-04-06T04:48:26;6.10;54.80
64888;DHT22;51386;53.082;8.816;2023-04-06T04:50:54;6.10;54.90
64888;DHT22;51386;53.082;8.816;2023-04-06T04:53:21;6.10;54.60
64888;DHT22;51386;53.082;8.816;2023-04-06T04:55:53;6.10;54.70
64888;DHT22;51386;53.082;8.816;2023-04-06T04:58:20;6.10;54.40
64888;DHT22;51386;53.082;8.816;2023-04-06T05:00:47;6.10;53.80
64888;DHT22;51386;53.082;8.816;2023-04-06T05:03:19;6.10;53.60
64888;DHT22;51386;53.082;8.816;2023-04-06T05:05:50;6.10;53.80
64888;DHT22;51386;53.082;8.816;2023-04-06T05:08:18;6.10;53.80
64888;DHT22;51386;53.082;8.816;2023-04-06T05:10:45;6.10;53.50
64888;DHT22;51386;53.082;8.816;2023-04-06T05:13:13;6.10;53.60
64888;DHT22;51386;53.082;8.816;2023-04-06T05:15:40;6.10;53.70
64888;DHT22;51386;53.082;8.816;2023-04-06T05:18:08;6.10;53.70
64888;DHT22;51386;53.082;8.816;2023-04-06T05:20:35;6.10;53.80
64888;DHT22;51386;53.082;8.816;2023-04-06T05:23:03;6.20;53.70
64888;DHT22;51386;53.082;8.816;2023-04-06T05:25:32;6.20;53.60
64888;DHT22;51386;53.082;8.816;2023-04-06T05:27:59;6.20;53.80
64888;DHT22;51386;53.082;8.816;2023-04-06T05:30:26;6.20;53.70
64888;DHT22;51386;53.082;8.816;2023-04-06T05:32:54;6.20;53.70
64888;DHT22;51386;53.082;8.816;2023-04-06T05:35:21;6.30;53.50
64888;DHT22;51386;53.082;8.816;2023-04-06T05:37:48;6.30;53.40
64888;DHT22;51386;53.082;8.816;2023-04-06T05:40:16;6.30;53.40
64888;DHT22;51386;53.082;8.816;2023-04-06T05:42:44;6.40;53.30
64888;DHT22;51386;53.082;8.816;2023-04-06T05:45:11;6.40;52.70
64888;DHT22;51386;53.082;8.816;2023-04-06T05:47:43;6.40;52.60
64888;DHT22;51386;53.082;8.816;2023-04-06T05:50:11;6.50;52.60
64888;DHT22;51386;53.082;8.816;2023-04-06T05:52:39;6.50;52.00
64888;DHT22;51386;53.082;8.816;2023-04-06T05:55:10;6.50;52.10
64888;DHT22;51386;53.082;8.816;2023-04-06T05:57:37;6.50;52.60
64888;DHT22;51386;53.082;8.816;2023-04-06T06:00:07;6.50;51.90
64888;DHT22;51386;53.082;8.816;2023-04-06T06:02:36;6.50;52.20
64888;DHT22;51386;53.082;8.816;2023-04-06T06:05:04;6.60;52.30
64888;DHT22;51386;53.082;8.816;2023-04-06T06:07:31;6.60;52.40
64888;DHT22;51386;53.082;8.816;2023-04-06T06:09:58;6.60;51.80
64888;DHT22;51386;53.082;8.816;2023-04-06T06:12:25;6.70;51.80
64888;DHT22;51386;53.082;8.816;2023-04-06T06:14:52;6.70;51.60
64888;DHT22;51386;53.082;8.816;2023-04-06T06:17:21;6.70;51.60
64888;DHT22;51386;53.082;8.816;2023-04-06T06:19:48;6.70;51.50
64888;DHT22;51386;53.082;8.816;2023-04-06T06:22:15;6.70;51.60
64888;DHT22;51386;53.082;8.816;2023-04-06T06:24:42;6.70;51.50
64888;DHT22;51386;53.082;8.816;2023-04-06T06:27:09;6.80;51.30
64888;DHT22;51386;53.082;8.816;2023-04-06T06:29:35;6.80;51.60
64888;DHT22;51386;53.082;8.816;2023-04-06T06:32:03;6.90;51.20
64888;DHT22;51386;53.082;8.816;2023-04-06T06:34:31;7.00;50.90
64888;DHT22;51386;53.082;8.816;2023-04-06T06:36:59;7.00;50.60
64888;DHT22;51386;53.082;8.816;2023-04-06T06:39:26;7.00;50.60
64888;DHT22;51386;53.082;8.816;2023-04-06T06:41:53;7.00;50.60
64888;DHT22;51386;53.082;8.816;2023-04-06T06:44:21;7.00;50.50
64888;DHT22;51386;53.082;8.816;2023-04-06T06:46:48;7.00;50.60
64888;DHT22;51386;53.082;8.816;2023-04-06T06:49:15;7.00;50.60
64888;DHT22;51386;53.082;8.816;2023-04-06T06:51:44;7.10;50.80
64888;DHT22;51386;53.082;8.816;2023-04-06T06:54:13;7.10;50.80
64888;DHT22;51386;53.082;8.816;2023-04-06T06:56:40;7.20;50.90
64888;DHT22;51386;53.082;8.816;2023-04-06T06:59:07;7.30;50.50
64888;DHT22;51386;53.082;8.816;2023-04-06T07:01:35;7.40;50.10
64888;DHT22;51386;53.082;8.816;2023-04-06T07:04:03;7.40;49.70
64888;DHT22;51386;53.082;8.816;2023-04-06T07:06:31;7.50;49.90
64888;DHT22;51386;53.082;8.816;2023-04-06T07:08:59;7.60;50.20
64888;DHT22;51386;53.082;8.816;2023-04-06T07:11:26;7.70;50.00
64888;DHT22;51386;53.082;8.816;2023-04-06T07:13:53;7.70;49.90
64888;DHT22;51386;53.082;8.816;2023-04-06T07:16:20;7.80;49.90
64888;DHT22;51386;53.082;8.816;2023-04-06T07:18:47;8.00;48.60
64888;DHT22;51386;53.082;8.816;2023-04-06T07:21:14;8.20;48.00
64888;DHT22;51386;53.082;8.816;2023-04-06T07:23:41;8.40;47.20
64888;DHT22;51386;53.082;8.816;2023-04-06T07:26:10;8.80;46.80
64888;DHT22;51386;53.082;8.816;2023-04-06T07:28:37;9.10;46.00
64888;DHT22;51386;53.082;8.816;2023-04-06T07:31:05;9.40;44.70
64888;DHT22;51386;53.082;8.816;2023-04-06T07:33:32;9.80;43.90
64888;DHT22;51386;53.082;8.816;2023-04-06T07:35:59;10.20;42.90
64888;DHT22;51386;53.082;8.816;2023-04-06T07:38:26;10.60;41.10
64888;DHT22;51386;53.082;8.816;2023-04-06T07:40:53;10.90;39.90
64888;DHT22;51386;53.082;8.816;2023-04-06T07:43:22;11.30;39.60
64888;DHT22;51386;53.082;8.816;2023-04-06T07:45:49;11.80;39.90
64888;DHT22;51386;53.082;8.816;2023-04-06T07:48:16;12.20;37.90
64888;DHT22;51386;53.082;8.816;2023-04-06T07:50:43;12.80;38.10
64888;DHT22;51386;53.082;8.816;2023-04-06T07:53:10;13.10;36.00
64888;DHT22;51386;53.082;8.816;2023-04-06T07:55:37;13.40;35.10
64888;DHT22;51386;53.082;8.816;2023-04-06T07:58:04;13.70;34.80
64888;DHT22;51386;53.082;8.816;2023-04-06T08:00:32;14.00;34.10
64888;DHT22;51386;53.082;8.816;2023-04-06T08:02:59;14.20;33.80
64888;DHT22;51386;53.082;8.816;2023-04-06T08:05:27;14.60;33.80
64888;DHT22;51386;53.082;8.816;2023-04-06T08:07:54;14.80;32.80
64888;DHT22;51386;53.082;8.816;2023-04-06T08:10:21;15.10;32.30
64888;DHT22;51386;53.082;8.816;2023-04-06T08:12:48;15.60;32.40
64888;DHT22;51386;53.082;8.816;2023-04-06T08:15:15;15.90;31.30
64888;DHT22;51386;53.082;8.816;2023-04-06T08:17:46;16.20;31.40
64888;DHT22;51386;53.082;8.816;2023-04-06T08:20:13;16.50;30.60
64888;DHT22;51386;53.082;8.816;2023-04-06T08:22:40;16.80;30.40
64888;DHT22;51386;53.082;8.816;2023-04-06T08:25:07;17.10;29.50
64888;DHT22;51386;53.082;8.816;2023-04-06T08:27:34;17.20;28.40
64888;DHT22;51386;53.082;8.816;2023-04-06T08:30:02;17.50;28.30
64888;DHT22;51386;53.082;8.816;2023-04-06T08:32:29;17.90;28.80
64888;DHT22;51386;53.082;8.816;2023-04-06T08:34:58;18.20;28.00
64888;DHT22;51386;53.082;8.816;2023-04-06T08:37:27;18.50;27.50
64888;DHT22;51386;53.082;8.816;2023-04-06T08:39:54;18.90;27.80
64888;DHT22;51386;53.082;8.816;2023-04-06T08:42:25;19.10;27.00
64888;DHT22;51386;53.082;8.816;2023-04-06T08:44:55;19.20;26.30
64888;DHT22;51386;53.082;8.816;2023-04-06T08:47:22;19.30;26.10
64888;DHT22;51386;53.082;8.816;2023-04-06T08:49:51;19.00;25.90
64888;DHT22;51386;53.082;8.816;2023-04-06T08:52:22;18.70;26.40
64888;DHT22;51386;53.082;8.816;2023-04-06T08:54:50;18.80;26.80
64888;DHT22;51386;53.082;8.816;2023-04-06T08:57:19;18.90;26.80
64888;DHT22;51386;53.082;8.816;2023-04-06T08:59:47;18.90;26.40
64888;DHT22;51386;53.082;8.816;2023-04-06T09:02:17;19.10;26.40
64888;DHT22;51386;53.082;8.816;2023-04-06T09:04:46;19.20;26.30
64888;DHT22;51386;53.082;8.816;2023-04-06T09:07:15;19.40;26.20
64888;DHT22;51386;53.082;8.816;2023-04-06T09:09:43;19.60;26.10
64888;DHT22;51386;53.082;8.816;2023-04-06T09:12:22;19.80;26.30
64888;DHT22;51386;53.082;8.816;2023-04-06T09:14:50;19.80;25.10
64888;DHT22;51386;53.082;8.816;2023-04-06T09:17:21;20.00;25.70
64888;DHT22;51386;53.082;8.816;2023-04-06T09:19:49;20.20;25.60
64888;DHT22;51386;53.082;8.816;2023-04-06T09:22:16;20.20;25.10
64888;DHT22;51386;53.082;8.816;2023-04-06T09:24:47;20.40;25.10
64888;DHT22;51386;53.082;8.816;2023-04-06T09:27:17;20.50;25.40
64888;DHT22;51386;53.082;8.816;2023-04-06T09:30:03;20.70;25.30
64888;DHT22;51386;53.082;8.816;2023-04-06T09:32:32;21.00;24.80
64888;DHT22;51386;53.082;8.816;2023-04-06T09:35:06;21.20;24.20
64888;DHT22;51386;53.082;8.816;2023-04-06T09:37:33;21.30;24.00
64888;DHT22;51386;53.082;8.816;2023-04-06T09:40:07;21.70;24.60
64888;DHT22;51386;53.082;8.816;2023-04-06T09:42:35;21.70;24.20
64888;DHT22;51386;53.082;8.816;2023-04-06T09:45:02;22.10;24.20
64888;DHT22;51386;53.082;8.816;2023-04-06T09:47:31;22.40;23.90
64888;DHT22;51386;53.082;8.816;2023-04-06T09:50:00;22.50;23.10
64888;DHT22;51386;53.082;8.816;2023-04-06T09:52:32;22.50;22.80
64888;DHT22;51386;53.082;8.816;2023-04-06T09:55:03;22.70;23.20
64888;DHT22;51386;53.082;8.816;2023-04-06T09:57:37;22.70;23.10
64888;DHT22;51386;53.082;8.816;2023-04-06T10:00:17;23.00;23.70
64888;DHT22;51386;53.082;8.816;2023-04-06T10:02:52;23.00;22.50
64888;DHT22;51386;53.082;8.816;2023-04-06T10:05:30;23.10;22.70
64888;DHT22;51386;53.082;8.816;2023-04-06T10:08:06;23.10;22.40
64888;DHT22;51386;53.082;8.816;2023-04-06T10:10:38;23.10;22.20
64888;DHT22;51386;53.082;8.816;2023-04-06T10:13:05;23.10;22.10
64888;DHT22;51386;53.082;8.816;2023-04-06T10:15:34;23.30;22.20
64888;DHT22;51386;53.082;8.816;2023-04-06T10:18:01;23.50;22.20
64888;DHT22;51386;53.082;8.816;2023-04-06T10:20:35;23.80;22.40
64888;DHT22;51386;53.082;8.816;2023-04-06T10:23:09;24.10;21.90
64888;DHT22;51386;53.082;8.816;2023-04-06T10:25:53;24.20;21.40
64888;DHT22;51386;53.082;8.816;2023-04-06T10:28:23;24.10;21.30
64888;DHT22;51386;53.082;8.816;2023-04-06T10:30:57;24.00;21.60
64888;DHT22;51386;53.082;8.816;2023-04-06T10:33:26;23.80;21.90
64888;DHT22;51386;53.082;8.816;2023-04-06T10:35:54;23.80;21.90
64888;DHT22;51386;53.082;8.816;2023-04-06T10:38:33;23.70;21.90
64888;DHT22;51386;53.082;8.816;2023-04-06T10:41:06;23.50;21.90
64888;DHT22;51386;53.082;8.816;2023-04-06T10:43:35;23.10;21.90
64888;DHT22;51386;53.082;8.816;2023-04-06T10:46:05;23.10;22.40
64888;DHT22;51386;53.082;8.816;2023-04-06T10:48:37;23.00;22.70
64888;DHT22;51386;53.082;8.816;2023-04-06T10:51:10;22.90;22.70
64888;DHT22;51386;53.082;8.816;2023-04-06T10:53:41;22.80;22.70
64888;DHT22;51386;53.082;8.816;2023-04-06T10:56:12;22.60;22.70
64888;DHT22;51386;53.082;8.816;2023-04-06T10:58:44;22.50;22.60
64888;DHT22;51386;53.082;8.816;2023-04-06T11:01:12;22.50;23.00
64888;DHT22;51386;53.082;8.816;2023-04-06T11:03:45;22.60;23.50
64888;DHT22;51386;53.082;8.816;2023-04-06T11:06:18;22.70;23.30
64888;DHT22;51386;53.082;8.816;2023-04-06T11:08:46;22.80;23.20
64888;DHT22;51386;53.082;8.816;2023-04-06T11:11:17;23.00;23.40
64888;DHT22;51386;53.082;8.816;2023-04-06T11:13:48;23.00;23.20
64888;DHT22;51386;53.082;8.816;2023-04-06T11:16:17;23.00;22.40
64888;DHT22;51386;53.082;8.816;2023-04-06T11:18:50;23.10;23.10
64888;DHT22;51386;53.082;8.816;2023-04-06T11:21:18;23.30;22.70
64888;DHT22;51386;53.082;8.816;2023-04-06T11:23:46;23.20;22.00
64888;DHT22;51386;53.082;8.816;2023-04-06T11:26:15;23.30;22.00
64888;DHT22;51386;53.082;8.816;2023-04-06T11:28:43;23.40;22.30
64888;DHT22;51386;53.082;8.816;2023-04-06T11:31:11;23.50;22.50
64888;DHT22;51386;53.082;8.816;2023-04-06T11:33:38;23.40;22.30
64888;DHT22;51386;53.082;8.816;2023-04-06T11:36:07;23.50;22.00
64888;DHT22;51386;53.082;8.816;2023-04-06T11:38:38;23.40;21.50
64888;DHT22;51386;53.082;8.816;2023-04-06T11:41:06;23.00;21.00
64888;DHT22;51386;53.082;8.816;2023-04-06T11:43:35;22.80;21.30
64888;DHT22;51386;53.082;8.816;2023-04-06T11:46:03;22.70;21.70
64888;DHT22;51386;53.082;8.816;2023-04-06T11:48:44;22.60;22.00
64888;DHT22;51386;53.082;8.816;2023-04-06T11:51:11;22.70;22.00
64888;DHT22;51386;53.082;8.816;2023-04-06T11:53:43;22.80;21.50
64888;DHT22;51386;53.082;8.816;2023-04-06T11:56:26;22.60;20.40
64888;DHT22;51386;53.082;8.816;2023-04-06T11:58:56;22.50;20.30
64888;DHT22;51386;53.082;8.816;2023-04-06T12:01:25;22.50;20.50
64888;DHT22;51386;53.082;8.816;2023-04-06T12:03:53;22.40;20.60
64888;DHT22;51386;53.082;8.816;2023-04-06T12:06:20;22.50;20.70
64888;DHT22;51386;53.082;8.816;2023-04-06T12:08:48;22.60;21.10
64888;DHT22;51386;53.082;8.816;2023-04-06T12:11:15;22.80;21.20
64888;DHT22;51386;53.082;8.816;2023-04-06T12:13:42;23.00;20.80
64888;DHT22;51386;53.082;8.816;2023-04-06T12:16:10;23.10;20.30
64888;DHT22;51386;53.082;8.816;2023-04-06T12:18:37;23.20;20.10
64888;DHT22;51386;53.082;8.816;2023-04-06T12:21:05;23.10;19.90
64888;DHT22;51386;53.082;8.816;2023-04-06T12:23:34;23.10;19.90
64888;DHT22;51386;53.082;8.816;2023-04-06T12:26:03;23.10;20.00
64888;DHT22;51386;53.082;8.816;2023-04-06T12:28:30;23.20;20.20
64888;DHT22;51386;53.082;8.816;2023-04-06T12:30:57;23.40;20.30
64888;DHT22;51386;53.082;8.816;2023-04-06T12:33:25;23.50;19.30
64888;DHT22;51386;53.082;8.816;2023-04-06T12:35:52;23.40;18.80
64888;DHT22;51386;53.082;8.816;2023-04-06T12:38:19;23.40;19.30
64888;DHT22;51386;53.082;8.816;2023-04-06T12:40:47;23.20;19.30
64888;DHT22;51386;53.082;8.816;2023-04-06T12:43:14;22.80;19.40
64888;DHT22;51386;53.082;8.816;2023-04-06T12:45:41;22.50;19.70
64888;DHT22;51386;53.082;8.816;2023-04-06T12:48:08;22.30;19.90
64888;DHT22;51386;53.082;8.816;2023-04-06T12:50:36;22.30;20.20
64888;DHT22;51386;53.082;8.816;2023-04-06T12:53:03;22.30;20.40
64888;DHT22;51386;53.082;8.816;2023-04-06T12:55:31;22.40;20.10
64888;DHT22;51386;53.082;8.816;2023-04-06T12:58:00;22.40;19.60
64888;DHT22;51386;53.082;8.816;2023-04-06T13:00:31;22.30;19.90
64888;DHT22;51386;53.082;8.816;2023-04-06T13:02:58;22.30;20.10
64888;DHT22;51386;53.082;8.816;2023-04-06T13:05:26;22.10;19.90
64888;DHT22;51386;53.082;8.816;2023-04-06T13:07:57;22.20;19.90
64888;DHT22;51386;53.082;8.816;2023-04-06T13:10:24;22.30;20.20
64888;DHT22;51386;53.082;8.816;2023-04-06T13:12:51;22.40;20.20
64888;DHT22;51386;53.082;8.816;2023-04-06T13:15:18;22.50;19.80
64888;DHT22;51386;53.082;8.816;2023-04-06T13:17:46;22.60;19.60
64888;DHT22;51386;53.082;8.816;2023-04-06T13:20:13;22.50;19.70
64888;DHT22;51386;53.082;8.816;2023-04-06T13:22:40;22.20;19.60
64888;DHT22;51386;53.082;8.816;2023-04-06T13:25:09;22.00;19.70
64888;DHT22;51386;53.082;8.816;2023-04-06T13:27:36;21.80;20.00
64888;DHT22;51386;53.082;8.816;2023-04-06T13:30:04;21.70;20.30
64888;DHT22;51386;53.082;8.816;2023-04-06T13:32:32;21.60;20.20
64888;DHT22;51386;53.082;8.816;2023-04-06T13:34:59;21.50;20.50
64888;DHT22;51386;53.082;8.816;2023-04-06T13:37:27;21.40;20.30
64888;DHT22;51386;53.082;8.816;2023-04-06T13:39:54;21.50;20.60
64888;DHT22;51386;53.082;8.816;2023-04-06T13:42:22;21.70;20.30
64888;DHT22;51386;53.082;8.816;2023-04-06T13:44:50;21.80;19.40
64888;DHT22;51386;53.082;8.816;2023-04-06T13:47:17;21.90;19.30
64888;DHT22;51386;53.082;8.816;2023-04-06T13:49:44;22.10;19.30
64888;DHT22;51386;53.082;8.816;2023-04-06T13:52:11;22.30;19.20
64888;DHT22;51386;53.082;8.816;2023-04-06T13:54:39;22.40;19.30
64888;DHT22;51386;53.082;8.816;2023-04-06T13:57:06;22.50;19.10
64888;DHT22;51386;53.082;8.816;2023-04-06T13:59:35;22.70;19.40
64888;DHT22;51386;53.082;8.816;2023-04-06T14:02:03;22.70;19.30
64888;DHT22;51386;53.082;8.816;2023-04-06T14:04:32;22.70;19.30
64888;DHT22;51386;53.082;8.816;2023-04-06T14:07:01;22.60;19.30
64888;DHT22;51386;53.082;8.816;2023-04-06T14:09:29;22.50;19.50
64888;DHT22;51386;53.082;8.816;2023-04-06T14:11:57;22.40;19.90
64888;DHT22;51386;53.082;8.816;2023-04-06T14:14:24;22.30;19.90
64888;DHT22;51386;53.082;8.816;2023-04-06T14:16:54;22.20;20.00
64888;DHT22;51386;53.082;8.816;2023-04-06T14:19:21;22.20;19.70
64888;DHT22;51386;53.082;8.816;2023-04-06T14:21:48;22.20;19.80
64888;DHT22;51386;53.082;8.816;2023-04-06T14:24:17;22.20;19.60
64888;DHT22;51386;53.082;8.816;2023-04-06T14:26:44;22.20;19.70
64888;DHT22;51386;53.082;8.816;2023-04-06T14:29:12;22.10;19.60
64888;DHT22;51386;53.082;8.816;2023-04-06T14:31:39;21.90;19.60
64888;DHT22;51386;53.082;8.816;2023-04-06T14:34:07;21.80;19.50
64888;DHT22;51386;53.082;8.816;2023-04-06T14:36:34;21.60;19.40
64888;DHT22;51386;53.082;8.816;2023-04-06T14:39:05;21.50;19.30
64888;DHT22;51386;53.082;8.816;2023-04-06T14:41:33;21.40;19.40
64888;DHT22;51386;53.082;8.816;2023-04-06T14:44:01;21.20;19.40
64888;DHT22;51386;53.082;8.816;2023-04-06T14:46:28;20.90;19.40
64888;DHT22;51386;53.082;8.816;2023-04-06T14:48:56;20.80;19.70
64888;DHT22;51386;53.082;8.816;2023-04-06T14:51:26;20.50;19.70
64888;DHT22;51386;53.082;8.816;2023-04-06T14:53:56;20.40;20.10
64888;DHT22;51386;53.082;8.816;2023-04-06T14:56:23;20.20;20.40
64888;DHT22;51386;53.082;8.816;2023-04-06T14:58:51;20.00;20.70
64888;DHT22;51386;53.082;8.816;2023-04-06T15:01:18;19.90;21.00
64888;DHT22;51386;53.082;8.816;2023-04-06T15:03:47;19.80;20.90
64888;DHT22;51386;53.082;8.816;2023-04-06T15:06:15;19.70;21.30
64888;DHT22;51386;53.082;8.816;2023-04-06T15:08:48;19.50;21.20
64888;DHT22;51386;53.082;8.816;2023-04-06T15:11:16;19.40;21.40
64888;DHT22;51386;53.082;8.816;2023-04-06T15:13:51;19.40;21.70
64888;DHT22;51386;53.082;8.816;2023-04-06T15:16:18;19.40;21.70
64888;DHT22;51386;53.082;8.816;2023-04-06T15:18:45;19.30;21.60
64888;DHT22;51386;53.082;8.816;2023-04-06T15:21:12;19.20;21.40
64888;DHT22;51386;53.082;8.816;2023-04-06T15:23:39;19.10;21.80
64888;DHT22;51386;53.082;8.816;2023-04-06T15:26:07;19.10;22.00
64888;DHT22;51386;53.082;8.816;2023-04-06T15:28:34;19.00;22.50
64888;DHT22;51386;53.082;8.816;2023-04-06T15:31:02;19.10;22.70
64888;DHT22;51386;53.082;8.816;2023-04-06T15:33:33;19.10;23.00
64888;DHT22;51386;53.082;8.816;2023-04-06T15:36:02;19.10;23.10
64888;DHT22;51386;53.082;8.816;2023-04-06T15:38:34;19.20;23.30
64888;DHT22;51386;53.082;8.816;2023-04-06T15:41:02;19.20;23.40
64888;DHT22;51386;53.082;8.816;2023-04-06T15:43:32;19.30;23.60